Time;durP1;ratioP1;P1;durP2;ratioP2;P2;SDS_P1;SDS_P2;PMS_P1;PMS_P2;Temp;Humidity;BMP_temperature;BMP_pressure;BME280_temperature;BME280_humidity;BME280_pressure;Samples;Min_cycle;Max_cycle;Signal;HPM_P1;HPM_P2
2021/01/04 00:00:13;;;;;;;8.17;6.30;;;4.10;99.90;;;;;;5034485;28;20413;-71
2021/01/04 00:03:08;;;;;;;9.10;6.90;;;4.10;99.90;;;;;;5029572;28;20458;-72
2021/01/04 00:05:51;;;;;;;8.77;7.27;;;4.00;99.90;;;;;;5031780;28;20536;-72
2021/01/04 00:08:49;;;;;;;10.10;7.13;;;4.10;99.90;;;;;;5033246;28;21017;-73
2021/01/04 00:11:51;;;;;;;7.30;6.60;;;4.10;99.90;;;;;;5030950;28;20954;-73
2021/01/04 00:14:41;;;;;;;8.80;7.33;;;4.10;99.90;;;;;;5033130;28;20479;-73
2021/01/04 00:17:37;;;;;;;8.57;6.90;;;4.00;99.90;;;;;;5028599;28;20781;-72
2021/01/04 00:20:22;;;;;;;8.10;7.03;;;4.00;99.90;;;;;;5033509;28;20419;-72
2021/01/04 00:23:03;;;;;;;10.53;7.60;;;4.00;99.90;;;;;;5032945;28;20801;-73
2021/01/04 00:25:33;;;;;;;7.57;6.83;;;4.00;99.90;;;;;;5033301;28;20410;-72
2021/01/04 00:28:10;;;;;;;10.53;7.90;;;4.00;99.90;;;;;;5033015;28;20508;-72
2021/01/04 00:31:03;;;;;;;7.80;6.40;;;4.00;99.90;;;;;;5029220;28;20432;-72
2021/01/04 00:33:35;;;;;;;9.37;7.43;;;3.90;99.90;;;;;;5032241;28;20544;-72
2021/01/04 00:36:06;;;;;;;7.83;6.43;;;3.80;99.90;;;;;;5033266;28;20433;-72
2021/01/04 00:38:56;;;;;;;7.70;6.90;;;3.80;99.90;;;;;;5032757;28;20572;-72
2021/01/04 00:41:38;;;;;;;8.27;7.37;;;3.80;99.90;;;;;;5032514;28;20779;-72
2021/01/04 00:44:09;;;;;;;11.70;6.70;;;3.70;99.90;;;;;;5033142;28;20418;-73
2021/01/04 00:46:44;;;;;;;8.87;7.10;;;3.70;99.90;;;;;;5033666;28;20480;-72
2021/01/04 00:49:28;;;;;;;10.37;7.90;;;3.70;99.90;;;;;;5033368;28;20414;-73
2021/01/04 00:52:07;;;;;;;7.67;6.77;;;3.70;99.90;;;;;;5032185;28;20496;-72
2021/01/04 00:54:52;;;;;;;6.80;5.90;;;3.70;99.90;;;;;;5033542;28;20457;-72
2021/01/04 00:57:33;;;;;;;7.70;6.90;;;3.60;99.90;;;;;;5029449;28;20438;-72
2021/01/04 01:00:11;;;;;;;7.63;6.00;;;3.60;99.90;;;;;;5033548;28;20516;-73
2021/01/04 01:02:39;;;;;;;12.00;7.13;;;3.50;99.90;;;;;;5031282;28;20458;-72
2021/01/04 01:05:16;;;;;;;7.53;6.70;;;3.40;99.90;;;;;;5032965;28;20461;-73
2021/01/04 01:07:57;;;;;;;8.20;5.87;;;3.50;99.90;;;;;;5032216;28;20833;-72
2021/01/04 01:10:24;;;;;;;6.90;5.77;;;3.60;99.90;;;;;;5030803;28;20442;-72
2021/01/04 01:13:07;;;;;;;8.30;6.57;;;3.60;99.90;;;;;;5032161;28;20465;-73
2021/01/04 01:15:41;;;;;;;9.77;6.20;;;3.50;99.90;;;;;;5029433;28;20532;-73
2021/01/04 01:18:16;;;;;;;6.80;6.10;;;3.50;99.90;;;;;;5032884;28;20407;-72
2021/01/04 01:20:50;;;;;;;6.53;5.80;;;3.50;99.90;;;;;;5032856;28;20406;-72
2021/01/04 01:23:18;;;;;;;6.73;5.83;;;3.30;99.90;;;;;;5031304;28;20487;-72
2021/01/04 01:25:50;;;;;;;6.93;6.23;;;3.30;99.90;;;;;;5029791;28;20456;-73
2021/01/04 01:28:21;;;;;;;8.00;7.07;;;3.30;99.90;;;;;;5032943;28;20418;-73
2021/01/04 01:31:24;;;;;;;6.47;5.73;;;3.30;99.90;;;;;;5032455;28;20946;-72
2021/01/04 01:34:01;;;;;;;6.37;5.70;;;3.20;99.90;;;;;;5032794;28;20502;-73
2021/01/04 01:36:57;;;;;;;7.10;6.40;;;3.20;99.90;;;;;;5032508;28;20805;-73
2021/01/04 01:39:26;;;;;;;7.60;6.23;;;3.20;99.90;;;;;;5032055;28;20513;-72
2021/01/04 01:42:03;;;;;;;9.13;6.63;;;3.20;99.90;;;;;;5030018;28;20414;-72
2021/01/04 01:44:33;;;;;;;6.97;6.20;;;3.20;99.90;;;;;;5033232;28;20398;-72
2021/01/04 01:47:08;;;;;;;6.70;6.00;;;3.30;99.90;;;;;;5032946;28;20531;-73
2021/01/04 01:49:53;;;;;;;7.20;6.50;;;3.40;99.90;;;;;;5032656;28;20393;-71
2021/01/04 01:53:02;;;;;;;7.37;6.77;;;3.40;99.90;;;;;;5030103;28;20446;-72
2021/01/04 01:55:49;;;;;;;7.23;6.10;;;3.40;99.90;;;;;;5036255;28;20937;-72
2021/01/04 01:58:39;;;;;;;7.90;6.87;;;3.40;99.90;;;;;;5031457;28;20429;-73
2021/01/04 02:01:21;;;;;;;8.40;6.40;;;3.50;99.90;;;;;;5030244;28;20509;-73
2021/01/04 02:04:06;;;;;;;8.83;6.87;;;3.50;99.90;;;;;;5031031;28;20994;-72
2021/01/04 02:06:41;;;;;;;7.70;5.70;;;3.50;99.90;;;;;;5031058;28;20871;-72
2021/01/04 02:09:27;;;;;;;5.83;5.30;;;3.50;99.90;;;;;;5029969;28;20516;-72
2021/01/04 02:12:25;;;;;;;6.73;5.90;;;3.50;99.90;;;;;;5030149;28;20434;-72
2021/01/04 02:15:04;;;;;;;6.93;5.80;;;3.40;99.90;;;;;;5030714;28;20417;-72
2021/01/04 02:18:00;;;;;;;6.27;5.23;;;3.30;99.90;;;;;;5030066;28;20426;-71
2021/01/04 02:20:56;;;;;;;7.47;6.20;;;3.30;99.90;;;;;;5031889;28;20438;-73
2021/01/04 02:23:34;;;;;;;7.10;5.60;;;3.30;99.90;;;;;;5031791;28;20519;-72
2021/01/04 02:26:08;;;;;;;6.30;5.70;;;3.50;99.90;;;;;;5031518;28;20437;-72
2021/01/04 02:28:54;;;;;;;6.27;5.67;;;3.50;99.90;;;;;;5032117;28;20421;-72
2021/01/04 02:31:20;;;;;;;8.10;6.50;;;3.50;99.90;;;;;;5030321;28;20946;-72
2021/01/04 02:33:46;;;;;;;8.03;5.77;;;3.50;99.90;;;;;;5031069;28;20479;-73
2021/01/04 02:36:12;;;;;;;6.70;5.83;;;3.40;99.90;;;;;;5027745;28;20177;-73
2021/01/04 02:38:44;;;;;;;8.07;5.70;;;3.60;99.90;;;;;;5022176;28;20175;-71
2021/01/04 02:41:12;;;;;;;6.50;5.90;;;3.70;99.90;;;;;;5030234;28;20861;-73
2021/01/04 02:43:37;;;;;;;6.60;5.67;;;3.70;99.90;;;;;;5031646;28;20495;-72
2021/01/04 02:46:10;;;;;;;6.87;6.17;;;3.70;99.90;;;;;;5030356;28;20433;-72
2021/01/04 02:48:39;;;;;;;5.30;4.80;;;3.60;99.90;;;;;;5031743;28;20297;-73
2021/01/04 02:51:12;;;;;;;7.23;5.93;;;3.70;99.90;;;;;;5029316;28;20916;-72
2021/01/04 02:53:43;;;;;;;6.10;5.50;;;3.70;99.90;;;;;;5020609;28;20476;-72
2021/01/04 02:56:27;;;;;;;7.47;6.20;;;3.70;99.90;;;;;;5031642;28;20432;-72
2021/01/04 02:59:04;;;;;;;7.20;6.20;;;3.80;99.90;;;;;;5030336;28;20513;-72
2021/01/04 03:01:40;;;;;;;15.43;10.03;;;3.70;99.90;;;;;;5035525;28;20516;-72
2021/01/04 03:04:09;;;;;;;9.80;7.47;;;3.70;99.90;;;;;;5034222;28;20535;-72
2021/01/04 03:06:58;;;;;;;9.07;6.27;;;3.60;99.90;;;;;;5033606;28;20437;-71
2021/01/04 03:09:31;;;;;;;7.27;6.53;;;3.60;99.90;;;;;;5034151;28;20487;-73
2021/01/04 03:12:06;;;;;;;6.73;5.87;;;3.50;99.90;;;;;;5033149;28;20428;-72
2021/01/04 03:14:53;;;;;;;7.03;6.23;;;3.40;99.90;;;;;;5032998;28;20460;-72
2021/01/04 03:17:45;;;;;;;9.37;6.63;;;3.40;99.90;;;;;;5026611;28;20418;-72
2021/01/04 03:20:22;;;;;;;7.07;6.40;;;3.30;99.90;;;;;;5034721;28;20511;-72
2021/01/04 03:22:49;;;;;;;6.37;5.67;;;3.30;99.90;;;;;;5034034;28;20495;-72
2021/01/04 03:25:17;;;;;;;7.47;6.77;;;3.20;99.90;;;;;;5027671;28;20523;-73
2021/01/04 03:27:43;;;;;;;7.90;6.90;;;3.20;99.90;;;;;;5030212;28;20435;-71
2021/01/04 03:30:10;;;;;;;7.83;6.70;;;3.30;99.90;;;;;;5034243;28;20432;-72
2021/01/04 03:32:37;;;;;;;7.90;6.30;;;3.30;99.90;;;;;;5033692;28;20601;-72
2021/01/04 03:35:04;;;;;;;7.43;6.67;;;3.20;99.90;;;;;;5032560;28;20425;-72
2021/01/04 03:37:29;;;;;;;10.13;8.00;;;3.10;99.90;;;;;;5033138;28;20449;-72
2021/01/04 03:39:55;;;;;;;8.00;7.30;;;3.10;99.90;;;;;;5047968;28;20780;-72
2021/01/04 03:42:21;;;;;;;8.87;7.17;;;3.10;99.90;;;;;;5032538;28;20298;-72
2021/01/04 03:44:46;;;;;;;9.13;6.40;;;3.10;99.90;;;;;;5033324;28;20659;-73
2021/01/04 03:47:12;;;;;;;9.63;7.47;;;3.10;99.90;;;;;;5031701;28;20198;-72
2021/01/04 03:49:37;;;;;;;9.17;7.27;;;3.00;99.90;;;;;;5029063;28;20192;-73
2021/01/04 03:52:03;;;;;;;8.20;7.07;;;3.00;99.90;;;;;;5031317;28;20178;-72
2021/01/04 03:54:29;;;;;;;8.97;7.40;;;3.00;99.90;;;;;;5033222;28;20199;-72
2021/01/04 03:56:55;;;;;;;45.23;27.47;;;3.10;99.90;;;;;;5034409;28;20501;-72
2021/01/04 03:59:21;;;;;;;11.60;9.93;;;3.10;99.90;;;;;;5033386;28;20187;-72
2021/01/04 04:01:48;;;;;;;9.70;8.10;;;3.10;99.90;;;;;;5033342;28;20171;-72
2021/01/04 04:04:14;;;;;;;8.93;7.77;;;3.10;99.90;;;;;;5033554;28;20457;-73
2021/01/04 04:06:40;;;;;;;8.73;7.80;;;3.00;99.90;;;;;;5030703;28;20512;-72
2021/01/04 04:09:05;;;;;;;7.80;7.00;;;3.10;99.90;;;;;;5033503;28;20241;-72
2021/01/04 04:11:31;;;;;;;21.70;15.60;;;3.00;99.90;;;;;;5033575;28;20171;-72
2021/01/04 04:13:56;;;;;;;26.80;14.30;;;3.00;99.90;;;;;;5029891;28;20192;-72
2021/01/04 04:16:22;;;;;;;33.43;24.00;;;3.10;99.90;;;;;;5032219;28;20782;-71
2021/01/04 04:18:48;;;;;;;8.57;7.53;;;3.00;99.90;;;;;;5033284;28;20178;-72
2021/01/04 04:21:14;;;;;;;9.10;7.13;;;3.00;99.90;;;;;;5034447;28;20175;-72
2021/01/04 04:23:41;;;;;;;10.37;8.13;;;2.90;99.90;;;;;;5033532;28;20695;-74
2021/01/04 04:26:06;;;;;;;8.73;7.30;;;3.00;99.90;;;;;;5033123;28;20777;-73
2021/01/04 04:28:32;;;;;;;10.00;7.53;;;3.10;99.90;;;;;;5033282;28;20422;-72
2021/01/04 04:30:58;;;;;;;10.13;8.17;;;3.20;99.90;;;;;;5029138;28;20232;-72
2021/01/04 04:33:23;;;;;;;9.97;7.90;;;3.20;99.90;;;;;;5023321;28;20219;-72
2021/01/04 04:35:51;;;;;;;10.10;7.73;;;3.20;99.90;;;;;;5033304;28;20170;-72
2021/01/04 04:38:16;;;;;;;8.87;7.90;;;3.20;99.90;;;;;;5033273;28;20167;-73
2021/01/04 04:40:48;;;;;;;10.07;7.23;;;3.30;99.90;;;;;;5032931;28;20414;-71
2021/01/04 04:43:16;;;;;;;9.20;8.03;;;3.20;99.90;;;;;;5032768;28;20191;-71
2021/01/04 04:45:42;;;;;;;9.70;7.40;;;3.30;99.90;;;;;;5033108;28;20402;-72
2021/01/04 04:48:45;;;;;;;9.10;7.60;;;3.20;99.90;;;;;;5026840;28;20521;-72
2021/01/04 04:51:41;;;;;;;12.63;8.27;;;3.20;99.90;;;;;;5016920;28;20501;-73
2021/01/04 04:54:20;;;;;;;10.37;8.00;;;3.10;99.90;;;;;;5032153;28;20461;-71
2021/01/04 04:57:10;;;;;;;9.57;7.10;;;3.10;99.90;;;;;;5031809;28;20417;-72
2021/01/04 05:00:07;;;;;;;9.33;7.63;;;3.00;99.90;;;;;;5032676;28;20403;-71
2021/01/04 05:03:06;;;;;;;7.50;6.10;;;3.10;99.90;;;;;;5032315;28;20442;-72
2021/01/04 05:05:57;;;;;;;7.90;7.10;;;3.10;99.90;;;;;;5023808;28;20423;-72
2021/01/04 05:08:37;;;;;;;10.83;7.20;;;3.00;99.90;;;;;;5022503;28;20418;-72
2021/01/04 05:11:03;;;;;;;7.43;5.97;;;3.00;99.90;;;;;;5032021;28;20421;-72
2021/01/04 05:13:39;;;;;;;10.20;7.47;;;3.00;99.90;;;;;;5032217;28;20450;-72
2021/01/04 05:16:09;;;;;;;7.40;6.37;;;3.10;99.90;;;;;;5032466;28;20544;-72
2021/01/04 05:19:06;;;;;;;9.80;7.70;;;3.10;99.90;;;;;;5032567;28;20401;-72
2021/01/04 05:21:47;;;;;;;8.40;6.70;;;3.10;99.90;;;;;;5031273;28;20436;-73
2021/01/04 05:24:37;;;;;;;11.03;7.77;;;3.00;99.90;;;;;;5032006;28;20442;-73
2021/01/04 05:27:24;;;;;;;8.37;7.10;;;3.10;99.90;;;;;;5032087;28;20401;-72
2021/01/04 05:30:08;;;;;;;8.50;7.30;;;3.10;99.90;;;;;;5032233;28;20824;-73
2021/01/04 05:33:18;;;;;;;9.57;6.80;;;3.20;99.90;;;;;;5031751;28;21003;-72
2021/01/04 05:35:46;;;;;;;7.80;6.77;;;3.20;99.90;;;;;;4990322;28;20424;-72
2021/01/04 05:38:25;;;;;;;9.53;7.67;;;3.20;99.90;;;;;;4974211;28;20945;-71
2021/01/04 05:41:28;;;;;;;8.20;6.57;;;3.10;99.90;;;;;;5013207;28;20527;-72
2021/01/04 05:44:18;;;;;;;8.57;6.90;;;3.20;99.90;;;;;;5028388;28;20537;-71
2021/01/04 05:46:53;;;;;;;8.80;6.77;;;3.20;99.90;;;;;;5021954;28;20442;-72
2021/01/04 05:49:43;;;;;;;8.20;7.40;;;3.10;99.90;;;;;;5031531;28;20714;-71
2021/01/04 05:52:09;;;;;;;9.60;7.10;;;3.30;99.90;;;;;;5031152;28;20453;-72
2021/01/04 05:54:36;;;;;;;8.33;7.43;;;3.30;99.90;;;;;;5029021;28;20462;-72
2021/01/04 05:57:03;;;;;;;8.50;7.40;;;3.30;99.90;;;;;;5031253;28;20198;-72
2021/01/04 05:59:29;;;;;;;8.33;7.27;;;3.20;99.90;;;;;;5031234;28;20427;-71
2021/01/04 06:02:02;;;;;;;9.30;7.63;;;3.20;99.90;;;;;;5029656;28;20803;-72
2021/01/04 06:04:28;;;;;;;9.97;7.97;;;3.30;99.90;;;;;;5030592;28;20224;-72
2021/01/04 06:07:00;;;;;;;9.40;6.97;;;3.30;99.90;;;;;;5031079;28;20891;-71
2021/01/04 06:09:27;;;;;;;8.13;6.90;;;3.30;99.90;;;;;;5030261;28;20220;-72
2021/01/04 06:11:57;;;;;;;8.00;6.43;;;3.40;99.90;;;;;;5031024;28;20424;-73
2021/01/04 06:14:28;;;;;;;9.67;7.70;;;3.40;99.90;;;;;;5030410;28;20458;-72
2021/01/04 06:17:05;;;;;;;7.73;6.80;;;3.40;99.90;;;;;;5029986;28;20424;-72
2021/01/04 06:19:36;;;;;;;11.00;6.60;;;3.40;99.90;;;;;;5030424;28;20470;-73
2021/01/04 06:22:11;;;;;;;8.83;7.57;;;3.40;99.90;;;;;;5029660;28;20430;-72
2021/01/04 06:24:38;;;;;;;9.30;6.47;;;3.40;99.90;;;;;;5030186;28;20437;-71
2021/01/04 06:27:15;;;;;;;9.87;7.27;;;3.30;99.90;;;;;;5030745;28;20437;-71
2021/01/04 06:29:49;;;;;;;11.20;7.57;;;3.30;99.90;;;;;;5030422;28;20513;-72
2021/01/04 06:32:27;;;;;;;9.80;7.30;;;3.30;99.90;;;;;;5031448;28;20890;-72
2021/01/04 06:34:59;;;;;;;10.53;7.63;;;3.30;99.90;;;;;;5038772;28;20464;-72
2021/01/04 06:37:28;;;;;;;9.57;7.07;;;3.30;99.90;;;;;;5031414;28;20424;-72
2021/01/04 06:40:03;;;;;;;7.13;6.20;;;3.30;99.90;;;;;;5034651;28;20440;-71
2021/01/04 06:42:36;;;;;;;10.17;6.70;;;3.40;99.90;;;;;;5033470;28;20449;-73
2021/01/04 06:45:20;;;;;;;7.50;6.80;;;3.40;99.90;;;;;;5034810;28;20434;-72
2021/01/04 06:47:54;;;;;;;8.00;7.20;;;3.30;99.90;;;;;;5034122;28;20451;-71
2021/01/04 06:50:19;;;;;;;8.00;6.93;;;3.50;99.90;;;;;;5033650;28;20440;-71
2021/01/04 06:52:45;;;;;;;7.87;6.20;;;3.50;99.90;;;;;;5032898;28;20450;-73
2021/01/04 06:55:15;;;;;;;7.90;6.97;;;3.50;99.90;;;;;;5033459;28;20286;-72
2021/01/04 06:58:02;;;;;;;7.50;5.97;;;3.40;99.90;;;;;;5034881;28;20164;-73
2021/01/04 07:00:46;;;;;;;13.03;7.40;;;3.50;99.90;;;;;;5048207;28;20426;-72
2021/01/04 07:03:14;;;;;;;10.57;7.33;;;3.50;99.90;;;;;;5033926;28;20451;-72
2021/01/04 07:06:04;;;;;;;8.40;6.90;;;3.50;99.90;;;;;;5032771;28;20418;-72
2021/01/04 07:09:07;;;;;;;7.73;6.43;;;3.50;99.90;;;;;;5023768;28;20464;-72
2021/01/04 07:11:56;;;;;;;8.63;6.30;;;3.50;99.90;;;;;;5032571;28;20475;-72
2021/01/04 07:14:55;;;;;;;7.63;6.40;;;3.50;99.90;;;;;;5034731;28;20540;-73
2021/01/04 07:17:44;;;;;;;8.70;6.57;;;3.50;99.90;;;;;;5032686;28;20513;-72
2021/01/04 07:20:56;;;;;;;8.67;6.20;;;3.50;99.90;;;;;;5032561;28;20451;-73
2021/01/04 07:23:56;;;;;;;7.87;5.97;;;3.60;99.90;;;;;;5021558;28;20511;-71
2021/01/04 07:26:33;;;;;;;9.10;6.20;;;3.70;99.90;;;;;;5028475;28;20439;-72
2021/01/04 07:29:09;;;;;;;6.97;6.27;;;3.60;99.90;;;;;;5034645;28;20411;-72
2021/01/04 07:31:57;;;;;;;8.13;6.83;;;3.60;99.90;;;;;;5034127;28;20961;-74
2021/01/04 07:34:46;;;;;;;7.33;6.07;;;3.60;99.90;;;;;;5031864;28;20492;-72
2021/01/04 07:37:32;;;;;;;7.17;6.30;;;3.60;99.90;;;;;;5033374;28;20460;-72
2021/01/04 07:40:32;;;;;;;8.10;6.47;;;3.70;99.90;;;;;;5032213;28;20422;-72
2021/01/04 07:43:24;;;;;;;7.73;6.93;;;3.70;99.90;;;;;;5032966;28;20446;-72
2021/01/04 07:45:55;;;;;;;9.00;7.20;;;3.70;99.90;;;;;;5013301;28;20764;-72
2021/01/04 07:48:45;;;;;;;7.53;6.30;;;3.70;99.90;;;;;;5031614;28;20452;-72
2021/01/04 07:51:37;;;;;;;9.73;7.43;;;3.80;99.90;;;;;;5032671;28;20465;-72
2021/01/04 07:54:12;;;;;;;7.67;6.90;;;3.80;99.90;;;;;;5031095;28;20462;-72
2021/01/04 07:57:14;;;;;;;7.87;6.50;;;3.90;99.90;;;;;;5033454;28;20425;-71
2021/01/04 08:00:03;;;;;;;11.57;6.93;;;3.80;99.90;;;;;;5031514;28;20505;-72
2021/01/04 08:02:37;;;;;;;7.97;6.77;;;3.80;99.90;;;;;;5032905;28;20511;-72
2021/01/04 08:05:24;;;;;;;9.70;7.77;;;4.00;99.90;;;;;;5032086;28;20514;-73
2021/01/04 08:08:19;;;;;;;10.10;8.10;;;3.90;99.90;;;;;;5032984;28;20499;-72
2021/01/04 08:10:51;;;;;;;9.43;8.13;;;3.90;99.90;;;;;;5023253;28;20508;-72
2021/01/04 08:13:42;;;;;;;10.53;8.20;;;4.00;99.90;;;;;;5042879;28;20822;-73
2021/01/04 08:16:39;;;;;;;9.17;8.10;;;3.90;99.90;;;;;;5033484;28;20986;-72
2021/01/04 08:19:09;;;;;;;9.20;7.67;;;4.00;99.90;;;;;;5026908;28;20834;-73
2021/01/04 08:21:40;;;;;;;10.10;9.10;;;3.90;99.90;;;;;;5030673;28;20426;-72
2021/01/04 08:24:23;;;;;;;9.90;8.03;;;3.80;99.90;;;;;;5031639;28;20477;-73
2021/01/04 08:27:04;;;;;;;9.70;8.23;;;3.70;99.90;;;;;;5032950;28;20421;-72
2021/01/04 08:29:35;;;;;;;11.37;8.80;;;3.80;99.90;;;;;;5033554;28;20410;-72
2021/01/04 08:32:19;;;;;;;12.47;9.30;;;3.80;99.90;;;;;;5030739;28;20425;-73
2021/01/04 08:34:46;;;;;;;12.73;10.60;;;3.80;99.90;;;;;;5031580;28;20473;-72
2021/01/04 08:37:15;;;;;;;38.93;25.93;;;3.80;99.90;;;;;;5032596;28;20440;-73
2021/01/04 08:39:46;;;;;;;11.87;9.13;;;3.80;99.90;;;;;;5031674;28;20562;-72
2021/01/04 08:42:17;;;;;;;14.97;9.90;;;3.80;99.90;;;;;;5030754;28;21062;-72
2021/01/04 08:44:57;;;;;;;11.83;10.00;;;3.70;99.90;;;;;;5029936;28;20438;-73
2021/01/04 08:47:30;;;;;;;13.17;9.70;;;3.80;99.90;;;;;;5031144;28;20449;-72
2021/01/04 08:50:05;;;;;;;104.37;66.87;;;3.90;99.90;;;;;;5031897;28;20827;-72
2021/01/04 08:52:43;;;;;;;11.23;9.53;;;3.90;99.90;;;;;;5031809;28;20457;-72
2021/01/04 08:55:09;;;;;;;13.53;10.07;;;3.80;99.90;;;;;;5030920;28;20454;-73
2021/01/04 08:57:44;;;;;;;12.20;8.90;;;3.80;99.90;;;;;;5032321;28;20434;-72
2021/01/04 09:00:23;;;;;;;10.70;8.93;;;3.90;99.90;;;;;;5031039;28;20457;-73
2021/01/04 09:02:49;;;;;;;11.60;9.07;;;4.00;99.90;;;;;;5032118;28;20816;-72
2021/01/04 09:05:29;;;;;;;11.87;9.50;;;4.00;99.90;;;;;;5030329;28;20438;-72
2021/01/04 09:07:57;;;;;;;12.67;9.00;;;3.90;99.90;;;;;;5031071;28;20469;-72
2021/01/04 09:10:26;;;;;;;11.43;9.10;;;4.10;99.90;;;;;;5030865;28;20434;-71
2021/01/04 09:12:55;;;;;;;14.70;10.23;;;4.10;99.90;;;;;;5030728;28;21028;-73
2021/01/04 09:15:20;;;;;;;11.77;10.47;;;4.10;99.90;;;;;;5032542;28;20476;-72
2021/01/04 09:18:01;;;;;;;12.77;10.40;;;4.20;99.90;;;;;;5031614;28;20429;-72
2021/01/04 09:21:14;;;;;;;12.30;10.40;;;4.10;99.90;;;;;;5046040;28;20645;-73
2021/01/04 09:23:41;;;;;;;12.23;9.27;;;4.00;99.90;;;;;;5020856;28;20474;-73
2021/01/04 09:26:33;;;;;;;14.30;11.37;;;3.90;99.90;;;;;;5032114;28;20436;-73
2021/01/04 09:29:11;;;;;;;58.47;40.50;;;4.00;99.90;;;;;;5031848;28;20434;-73
2021/01/04 09:31:48;;;;;;;19.53;16.10;;;4.00;99.90;;;;;;5031571;28;20434;-73
2021/01/04 09:34:16;;;;;;;14.07;9.73;;;4.10;99.90;;;;;;5031187;28;20472;-73
2021/01/04 09:36:42;;;;;;;12.73;9.60;;;4.10;99.90;;;;;;5027562;28;20473;-72
2021/01/04 09:39:12;;;;;;;12.47;10.10;;;4.00;99.90;;;;;;5029650;28;20439;-73
2021/01/04 09:41:38;;;;;;;14.57;10.70;;;4.10;99.90;;;;;;5029164;28;20783;-72
2021/01/04 09:44:11;;;;;;;15.43;10.53;;;4.10;99.90;;;;;;5029629;28;20453;-72
2021/01/04 09:46:42;;;;;;;14.40;10.20;;;4.00;99.90;;;;;;5031182;28;20446;-73
2021/01/04 09:49:14;;;;;;;12.50;10.30;;;4.20;99.90;;;;;;5022266;28;20978;-72
2021/01/04 09:51:49;;;;;;;13.83;9.97;;;4.20;99.90;;;;;;5029809;28;20461;-71
2021/01/04 09:54:22;;;;;;;12.50;10.40;;;4.10;99.90;;;;;;5029863;28;20504;-73
2021/01/04 09:56:49;;;;;;;10.67;9.60;;;4.10;99.90;;;;;;5030385;28;20441;-72
2021/01/04 09:59:23;;;;;;;13.30;10.70;;;4.20;99.90;;;;;;5031412;28;20454;-73
2021/01/04 10:02:00;;;;;;;10.67;9.20;;;4.30;99.90;;;;;;5030206;28;20985;-73
2021/01/04 10:04:33;;;;;;;11.33;9.60;;;4.20;99.90;;;;;;5030657;28;20430;-73
2021/01/04 10:07:03;;;;;;;13.33;10.27;;;4.20;99.90;;;;;;5031067;28;20468;-73
2021/01/04 10:09:35;;;;;;;14.23;11.27;;;4.20;99.90;;;;;;5031390;28;20448;-73
2021/01/04 10:12:04;;;;;;;11.90;8.80;;;4.10;99.90;;;;;;5032898;28;20441;-73
2021/01/04 10:14:30;;;;;;;13.50;9.20;;;4.20;99.90;;;;;;5033915;28;20464;-73
2021/01/04 10:16:58;;;;;;;11.97;9.90;;;4.20;99.90;;;;;;5035638;28;20433;-73
2021/01/04 10:19:37;;;;;;;12.80;10.10;;;4.20;99.90;;;;;;5035742;28;20533;-73
2021/01/04 10:22:11;;;;;;;10.70;8.80;;;4.10;99.90;;;;;;5034696;28;20398;-73
2021/01/04 10:24:45;;;;;;;13.63;9.90;;;4.30;99.90;;;;;;5028565;28;20426;-73
2021/01/04 10:27:16;;;;;;;12.80;9.50;;;4.20;99.90;;;;;;5034808;28;20430;-73
2021/01/04 10:29:46;;;;;;;10.80;9.70;;;4.10;99.90;;;;;;5033789;28;20492;-73
2021/01/04 10:32:19;;;;;;;11.63;9.13;;;4.00;99.90;;;;;;5033309;28;20529;-72
2021/01/04 10:34:47;;;;;;;12.23;9.03;;;4.00;99.90;;;;;;5033811;28;20553;-72
2021/01/04 10:37:50;;;;;;;11.73;10.10;;;4.00;99.90;;;;;;5033239;28;20422;-72
2021/01/04 10:40:19;;;;;;;12.80;9.07;;;4.00;99.90;;;;;;5030034;28;20487;-72
2021/01/04 10:42:49;;;;;;;13.60;11.00;;;4.00;99.90;;;;;;5035414;28;20418;-72
2021/01/04 10:45:31;;;;;;;13.43;9.60;;;3.90;99.90;;;;;;5033349;28;20422;-69
2021/01/04 10:47:59;;;;;;;11.80;9.40;;;4.00;99.90;;;;;;5016896;28;20436;-69
2021/01/04 10:50:32;;;;;;;12.70;10.20;;;4.00;99.90;;;;;;5032983;28;20826;-68
2021/01/04 10:53:01;;;;;;;72.43;48.27;;;4.00;99.90;;;;;;5035125;28;20526;-69
2021/01/04 10:55:30;;;;;;;11.17;10.03;;;4.00;99.90;;;;;;5034424;28;20484;-70
2021/01/04 10:58:18;;;;;;;12.43;9.93;;;4.00;99.90;;;;;;5024602;28;20431;-69
2021/01/04 11:00:59;;;;;;;14.50;11.13;;;4.00;99.90;;;;;;5028177;28;20429;-70
2021/01/04 11:03:25;;;;;;;12.07;9.00;;;4.00;99.90;;;;;;5034521;28;20499;-72
2021/01/04 11:05:51;;;;;;;13.03;10.40;;;3.90;99.90;;;;;;5033889;28;20445;-71
2021/01/04 11:08:23;;;;;;;10.00;8.80;;;3.80;99.90;;;;;;5033176;28;20193;-71
2021/01/04 11:11:21;;;;;;;13.23;9.93;;;4.00;99.90;;;;;;5033936;28;20184;-72
2021/01/04 11:13:46;;;;;;;11.40;8.63;;;4.30;99.90;;;;;;5032771;28;20496;-69
2021/01/04 11:16:18;;;;;;;10.80;9.70;;;4.40;99.90;;;;;;5033423;28;20450;-69
2021/01/04 11:18:53;;;;;;;9.13;7.97;;;4.30;99.90;;;;;;5032386;28;20696;-69
2021/01/04 11:21:20;;;;;;;10.63;8.80;;;4.40;99.90;;;;;;5034035;28;20413;-69
2021/01/04 11:23:46;;;;;;;11.10;9.50;;;4.50;99.90;;;;;;5032410;28;20457;-69
2021/01/04 11:26:12;;;;;;;9.17;8.27;;;4.40;99.90;;;;;;5033087;28;20436;-69
2021/01/04 11:28:37;;;;;;;13.17;9.60;;;4.60;99.90;;;;;;5026919;28;20426;-69
2021/01/04 11:31:04;;;;;;;9.40;8.43;;;4.80;99.90;;;;;;5033706;28;20183;-69
2021/01/04 11:33:30;;;;;;;13.70;9.47;;;4.70;99.90;;;;;;5034395;28;20195;-70
2021/01/04 11:35:56;;;;;;;44.00;29.03;;;4.60;99.90;;;;;;5031676;28;20997;-70
2021/01/04 11:38:23;;;;;;;16.77;12.03;;;4.60;99.90;;;;;;5033372;28;20180;-69
2021/01/04 11:40:48;;;;;;;13.73;9.63;;;4.60;99.90;;;;;;5033060;28;20455;-70
2021/01/04 11:43:15;;;;;;;11.50;10.00;;;4.60;99.90;;;;;;5034197;28;21165;-70
2021/01/04 11:45:40;;;;;;;13.13;10.40;;;4.50;99.90;;;;;;5032616;28;20672;-73
2021/01/04 11:48:07;;;;;;;11.73;9.30;;;4.40;99.90;;;;;;5031667;28;20442;-72
2021/01/04 11:50:32;;;;;;;12.30;10.00;;;4.30;99.90;;;;;;5032082;28;20682;-72
2021/01/04 11:52:58;;;;;;;13.10;9.37;;;4.40;99.90;;;;;;5030755;28;20532;-72
2021/01/04 11:55:24;;;;;;;11.57;9.93;;;4.50;99.90;;;;;;5031830;28;20188;-72
2021/01/04 11:57:50;;;;;;;10.90;9.33;;;4.50;99.90;;;;;;5032750;28;20282;-72
2021/01/04 12:00:17;;;;;;;10.27;9.10;;;4.30;99.90;;;;;;5031907;28;20179;-73
2021/01/04 12:02:42;;;;;;;13.20;9.23;;;4.30;99.90;;;;;;5032777;28;20462;-72
2021/01/04 12:05:12;;;;;;;13.10;9.40;;;4.20;99.90;;;;;;5033083;28;20430;-72
2021/01/04 12:07:37;;;;;;;12.87;10.30;;;4.30;99.90;;;;;;5033892;28;20694;-72
2021/01/04 12:10:04;;;;;;;13.90;11.47;;;4.20;99.90;;;;;;5032221;28;20520;-72
2021/01/04 12:12:29;;;;;;;27.23;18.80;;;4.30;99.90;;;;;;5032006;28;20234;-72
2021/01/04 12:14:55;;;;;;;13.50;10.67;;;4.20;99.90;;;;;;5031982;28;20457;-72
2021/01/04 12:17:21;;;;;;;10.83;9.23;;;4.20;99.90;;;;;;5038819;28;20748;-72
2021/01/04 12:19:47;;;;;;;12.07;9.30;;;4.20;99.90;;;;;;5053244;28;20605;-72
2021/01/04 12:22:14;;;;;;;11.57;9.97;;;4.30;99.90;;;;;;5043455;28;20683;-72
2021/01/04 12:24:40;;;;;;;10.90;9.03;;;4.30;99.90;;;;;;5032361;28;20517;-72
2021/01/04 12:27:09;;;;;;;10.23;9.07;;;4.40;99.90;;;;;;5033082;28;20505;-69
2021/01/04 12:29:35;;;;;;;9.43;8.47;;;4.40;99.90;;;;;;5033011;28;20410;-69
2021/01/04 12:32:01;;;;;;;10.73;9.63;;;4.30;99.90;;;;;;5026319;28;20433;-72
2021/01/04 12:34:28;;;;;;;10.27;7.77;;;4.20;99.90;;;;;;5030994;28;20516;-71
2021/01/04 12:36:53;;;;;;;11.53;8.40;;;4.20;99.90;;;;;;5032315;28;20434;-69
2021/01/04 12:39:19;;;;;;;14.57;9.60;;;4.10;99.90;;;;;;5031851;28;20445;-69
2021/01/04 12:41:44;;;;;;;9.50;7.77;;;4.00;99.90;;;;;;5032542;28;20633;-69
2021/01/04 12:44:13;;;;;;;10.53;8.10;;;4.00;99.90;;;;;;5031254;28;20191;-72
2021/01/04 12:46:47;;;;;;;10.27;7.57;;;4.00;99.90;;;;;;5029196;28;20187;-72
2021/01/04 12:49:16;;;;;;;9.33;8.00;;;4.00;99.90;;;;;;5030334;28;20442;-71
2021/01/04 12:51:50;;;;;;;8.40;7.47;;;3.90;99.90;;;;;;5030572;28;20410;-71
2021/01/04 12:54:18;;;;;;;11.33;7.63;;;4.00;99.90;;;;;;5031226;28;20967;-73
2021/01/04 12:56:48;;;;;;;8.80;7.97;;;3.90;99.90;;;;;;5033008;28;20414;-73
2021/01/04 12:59:16;;;;;;;11.43;9.23;;;3.80;99.90;;;;;;5032433;28;20976;-72
2021/01/04 13:01:41;;;;;;;15.07;9.13;;;3.90;99.90;;;;;;5032385;28;20421;-72
2021/01/04 13:04:07;;;;;;;10.67;8.40;;;3.90;99.90;;;;;;5032402;28;20444;-72
2021/01/04 13:06:33;;;;;;;10.50;8.27;;;3.80;99.90;;;;;;5032654;28;20174;-72
2021/01/04 13:09:00;;;;;;;13.73;8.37;;;3.90;99.90;;;;;;5032696;28;20493;-72
2021/01/04 13:11:28;;;;;;;9.00;7.80;;;3.90;99.90;;;;;;5031048;28;20446;-72
2021/01/04 13:13:53;;;;;;;10.47;8.53;;;3.90;99.90;;;;;;5032133;28;20857;-72
2021/01/04 13:16:19;;;;;;;9.10;7.57;;;3.80;99.90;;;;;;5032324;28;20437;-72
2021/01/04 13:18:45;;;;;;;8.17;7.33;;;3.80;99.90;;;;;;5032095;28;20444;-72
2021/01/04 13:21:19;;;;;;;9.23;8.30;;;3.90;99.90;;;;;;5031913;28;20405;-69
2021/01/04 13:23:45;;;;;;;8.80;7.40;;;4.00;99.90;;;;;;5031933;28;20199;-70
2021/01/04 13:26:11;;;;;;;9.13;7.30;;;4.00;99.90;;;;;;5031861;28;20457;-70
2021/01/04 13:28:37;;;;;;;8.43;6.90;;;4.00;99.90;;;;;;5030899;28;20421;-70
2021/01/04 13:31:03;;;;;;;7.70;6.90;;;4.00;99.90;;;;;;5031985;28;20401;-70